Time;durP1;ratioP1;P1;durP2;ratioP2;P2;SDS_P1;SDS_P2;PMS_P1;PMS_P2;Temp;Humidity;BMP_temperature;BMP_pressure;BME280_temperature;BME280_humidity;BME280_pressure;Samples;Min_cycle;Max_cycle;Signal;HPM_P1;HPM_P2
2024/02/24 00:00:08;;;;;;;7.25;2.85;;;;;;;;;;5083235;28;20377;-64
2024/02/24 00:02:35;;;;;;;3.17;2.45;;;;;;;;;;5086425;28;20050;-65
2024/02/24 00:05:01;;;;;;;5.13;2.60;;;;;;;;;;5080622;28;20364;-64
2024/02/24 00:07:27;;;;;;;5.22;2.80;;;;;;;;;;5074266;28;20016;-65
2024/02/24 00:09:53;;;;;;;4.57;2.60;;;;;;;;;;5081266;28;20545;-64
2024/02/24 00:12:20;;;;;;;5.60;2.53;;;;;;;;;;5077283;28;20035;-64
2024/02/24 00:14:46;;;;;;;3.00;2.55;;;;;;;;;;5078398;28;20021;-65
2024/02/24 00:17:12;;;;;;;2.83;2.58;;;;;;;;;;5082973;28;20032;-64
2024/02/24 00:19:38;;;;;;;2.55;2.35;;;;;;;;;;5087319;28;20093;-64
2024/02/24 00:22:04;;;;;;;4.38;2.10;;;;;;;;;;5076859;28;20030;-64
2024/02/24 00:24:30;;;;;;;6.85;2.80;;;;;;;;;;5079698;28;20342;-64
2024/02/24 00:26:56;;;;;;;5.80;2.78;;;;;;;;;;5079270;28;20048;-65
2024/02/24 00:29:23;;;;;;;4.65;2.47;;;;;;;;;;5084459;28;20077;-65
2024/02/24 00:31:49;;;;;;;4.80;2.65;;;;;;;;;;5082669;28;20028;-64
2024/02/24 00:34:15;;;;;;;4.03;3.22;;;;;;;;;;5078184;28;20051;-65
2024/02/24 00:36:41;;;;;;;5.13;4.18;;;;;;;;;;5091306;27;20504;-64
2024/02/24 00:39:08;;;;;;;3.22;2.15;;;;;;;;;;5082465;28;20020;-64
2024/02/24 00:41:34;;;;;;;4.07;3.05;;;;;;;;;;5102898;28;20043;-66
2024/02/24 00:44:00;;;;;;;2.72;2.53;;;;;;;;;;5084379;27;20091;-64
2024/02/24 00:46:26;;;;;;;2.60;2.40;;;;;;;;;;5103554;28;20023;-66
2024/02/24 00:48:52;;;;;;;3.20;2.92;;;;;;;;;;5099624;28;20032;-64
2024/02/24 00:51:19;;;;;;;2.38;2.17;;;;;;;;;;5076997;28;20077;-64
2024/02/24 00:53:45;;;;;;;3.03;2.40;;;;;;;;;;5079168;28;20508;-67
2024/02/24 00:56:11;;;;;;;5.35;2.35;;;;;;;;;;5093961;28;20263;-64
2024/02/24 00:58:37;;;;;;;3.53;2.35;;;;;;;;;;5099248;28;20077;-64
2024/02/24 01:01:03;;;;;;;2.40;2.20;;;;;;;;;;5101869;28;20483;-64
2024/02/24 01:03:29;;;;;;;2.60;2.40;;;;;;;;;;5101894;28;20023;-64
2024/02/24 01:05:56;;;;;;;5.78;2.13;;;;;;;;;;5086693;28;20394;-64
2024/02/24 01:08:22;;;;;;;5.53;2.90;;;;;;;;;;5100482;28;20063;-64
2024/02/24 01:10:48;;;;;;;2.00;1.90;;;;;;;;;;5103783;28;20089;-65
2024/02/24 01:13:14;;;;;;;3.58;2.10;;;;;;;;;;5103134;28;20027;-67
2024/02/24 01:15:41;;;;;;;4.60;2.15;;;;;;;;;;5102217;28;20047;-64
2024/02/24 01:18:07;;;;;;;10.50;3.03;;;;;;;;;;5108908;28;20080;-64
2024/02/24 01:20:34;;;;;;;5.00;2.75;;;;;;;;;;5085295;28;20020;-64
2024/02/24 01:23:00;;;;;;;2.85;2.55;;;;;;;;;;5090144;28;20024;-64
2024/02/24 01:25:27;;;;;;;2.65;2.45;;;;;;;;;;5084421;28;20039;-64
2024/02/24 01:27:54;;;;;;;2.67;2.47;;;;;;;;;;5099824;28;20536;-65
2024/02/24 01:30:20;;;;;;;2.85;2.30;;;;;;;;;;5080475;28;20129;-63
2024/02/24 01:32:52;;;;;;;9.30;2.75;;;;;;;;;;5103737;28;20396;-65
2024/02/24 01:35:19;;;;;;;3.40;2.00;;;;;;;;;;5090528;28;20484;-64
2024/02/24 01:37:45;;;;;;;2.47;2.22;;;;;;;;;;5085207;28;20053;-64
2024/02/24 01:40:12;;;;;;;4.43;2.80;;;;;;;;;;5081251;28;20066;-64
2024/02/24 01:42:38;;;;;;;3.80;3.22;;;;;;;;;;5097950;28;20034;-64
2024/02/24 01:45:04;;;;;;;2.97;2.70;;;;;;;;;;5099591;28;20139;-64
2024/02/24 01:47:30;;;;;;;3.50;2.45;;;;;;;;;;5081899;28;20099;-64
2024/02/24 01:49:57;;;;;;;2.90;2.70;;;;;;;;;;5080775;28;20073;-64
2024/02/24 01:52:24;;;;;;;5.13;2.35;;;;;;;;;;5101327;28;20043;-64
2024/02/24 01:54:54;;;;;;;3.10;2.58;;;;;;;;;;5103905;28;20490;-64
2024/02/24 01:57:21;;;;;;;5.18;3.20;;;;;;;;;;5085605;28;20107;-64
2024/02/24 01:59:47;;;;;;;3.00;2.70;;;;;;;;;;5093425;28;20572;-64
2024/02/24 02:02:13;;;;;;;2.67;2.33;;;;;;;;;;5099628;28;20023;-63
2024/02/24 02:04:39;;;;;;;2.13;1.92;;;;;;;;;;5099516;28;20043;-64
2024/02/24 02:07:05;;;;;;;2.97;1.98;;;;;;;;;;5093748;28;20058;-64
2024/02/24 02:09:32;;;;;;;2.38;2.17;;;;;;;;;;5097066;28;20118;-64
2024/02/24 02:11:58;;;;;;;2.40;2.20;;;;;;;;;;5104471;28;20102;-64
2024/02/24 02:14:24;;;;;;;1.95;1.85;;;;;;;;;;5106800;28;20022;-64
2024/02/24 02:16:50;;;;;;;4.40;2.65;;;;;;;;;;5101213;28;20055;-64
2024/02/24 02:19:17;;;;;;;5.20;2.33;;;;;;;;;;5081464;28;20024;-67
2024/02/24 02:21:44;;;;;;;2.95;2.20;;;;;;;;;;5081508;28;20020;-64
2024/02/24 02:24:11;;;;;;;2.65;2.22;;;;;;;;;;5099924;28;20702;-68
2024/02/24 02:26:37;;;;;;;1.90;1.80;;;;;;;;;;5086450;28;20032;-64
2024/02/24 02:29:04;;;;;;;3.70;2.40;;;;;;;;;;5101403;28;20027;-64
2024/02/24 02:31:30;;;;;;;4.75;2.45;;;;;;;;;;5102823;28;20050;-64
2024/02/24 02:33:57;;;;;;;3.90;2.72;;;;;;;;;;5096363;28;20028;-64
2024/02/24 02:36:23;;;;;;;2.30;2.10;;;;;;;;;;5092247;28;20047;-64
2024/02/24 02:38:49;;;;;;;3.05;2.75;;;;;;;;;;5097423;28;20032;-66
2024/02/24 02:41:16;;;;;;;2.83;2.40;;;;;;;;;;5095884;28;20028;-69
2024/02/24 02:43:42;;;;;;;4.55;2.97;;;;;;;;;;5097159;28;20532;-64
2024/02/24 02:46:08;;;;;;;4.13;2.60;;;;;;;;;;5094743;28;20039;-64
2024/02/24 02:48:34;;;;;;;2.35;2.15;;;;;;;;;;5099824;28;20032;-63
2024/02/24 02:51:00;;;;;;;4.63;2.97;;;;;;;;;;5107456;28;20024;-63
2024/02/24 02:53:26;;;;;;;4.35;3.45;;;;;;;;;;5104259;28;20028;-64
2024/02/24 02:55:53;;;;;;;10.85;3.45;;;;;;;;;;5090237;27;20027;-65
2024/02/24 02:58:19;;;;;;;4.13;2.45;;;;;;;;;;5103020;27;20205;-64
2024/02/24 03:00:47;;;;;;;5.80;2.78;;;;;;;;;;5106665;27;20072;-64
2024/02/24 03:03:13;;;;;;;2.70;2.50;;;;;;;;;;5103323;28;20039;-65
2024/02/24 03:05:39;;;;;;;2.53;2.10;;;;;;;;;;5105918;28;20042;-64
2024/02/24 03:08:06;;;;;;;4.13;2.83;;;;;;;;;;5100291;28;20085;-63
2024/02/24 03:10:33;;;;;;;7.35;3.45;;;;;;;;;;5110578;28;20024;-64
2024/02/24 03:12:59;;;;;;;3.53;2.10;;;;;;;;;;5105122;28;20051;-64
2024/02/24 03:15:25;;;;;;;4.03;2.47;;;;;;;;;;5101476;28;20024;-68
2024/02/24 03:17:52;;;;;;;4.13;2.83;;;;;;;;;;5101013;28;20104;-64
2024/02/24 03:20:18;;;;;;;6.78;2.55;;;;;;;;;;5105182;28;20032;-63
2024/02/24 03:22:44;;;;;;;2.58;2.28;;;;;;;;;;5105776;28;20404;-64
2024/02/24 03:25:10;;;;;;;5.32;3.03;;;;;;;;;;5093271;28;20039;-64
2024/02/24 03:27:36;;;;;;;7.88;3.03;;;;;;;;;;5099984;28;20020;-64
2024/02/24 03:30:03;;;;;;;2.95;2.28;;;;;;;;;;5099684;28;20102;-64
2024/02/24 03:32:29;;;;;;;6.00;2.63;;;;;;;;;;5100435;28;20494;-64
2024/02/24 03:34:55;;;;;;;3.08;2.72;;;;;;;;;;5105130;27;20032;-64
2024/02/24 03:37:22;;;;;;;3.03;2.58;;;;;;;;;;5105438;27;20131;-63
2024/02/24 03:39:48;;;;;;;6.18;2.08;;;;;;;;;;5105734;28;20030;-63
2024/02/24 03:42:14;;;;;;;2.45;2.25;;;;;;;;;;5109644;28;20028;-63
2024/02/24 03:44:40;;;;;;;3.70;2.53;;;;;;;;;;5118065;27;20361;-66
2024/02/24 03:47:06;;;;;;;3.10;2.80;;;;;;;;;;5103052;27;20028;-63
2024/02/24 03:49:33;;;;;;;2.65;2.13;;;;;;;;;;5105066;28;20024;-65
2024/02/24 03:51:59;;;;;;;2.75;2.55;;;;;;;;;;5106946;28;20019;-63
2024/02/24 03:54:25;;;;;;;3.22;2.75;;;;;;;;;;5104145;28;20499;-63
2024/02/24 03:56:52;;;;;;;2.63;2.42;;;;;;;;;;5106240;28;20035;-63
2024/02/24 03:59:18;;;;;;;2.30;2.10;;;;;;;;;;5101724;28;20110;-64
2024/02/24 04:01:44;;;;;;;3.13;2.38;;;;;;;;;;5096664;28;20051;-66
2024/02/24 04:04:11;;;;;;;2.78;2.10;;;;;;;;;;5085777;27;20479;-63
2024/02/24 04:06:37;;;;;;;3.28;2.65;;;;;;;;;;5109080;28;20032;-63
2024/02/24 04:09:03;;;;;;;3.35;2.42;;;;;;;;;;5104204;28;20096;-63
2024/02/24 04:11:29;;;;;;;5.40;2.80;;;;;;;;;;5106443;28;20027;-63
2024/02/24 04:13:56;;;;;;;3.83;3.03;;;;;;;;;;5097930;28;20485;-63
2024/02/24 04:16:22;;;;;;;3.25;2.22;;;;;;;;;;5107966;27;20210;-64
2024/02/24 04:18:48;;;;;;;2.83;2.50;;;;;;;;;;5087256;28;20092;-64
2024/02/24 04:21:17;;;;;;;3.42;2.72;;;;;;;;;;5095243;28;20073;-63
2024/02/24 04:23:43;;;;;;;2.33;2.13;;;;;;;;;;5099901;28;20039;-63
2024/02/24 04:26:09;;;;;;;3.42;2.50;;;;;;;;;;5102492;27;20402;-66
2024/02/24 04:28:35;;;;;;;2.22;2.03;;;;;;;;;;5102299;28;20020;-64
2024/02/24 04:31:01;;;;;;;2.55;2.15;;;;;;;;;;5081941;28;20039;-64
2024/02/24 04:33:28;;;;;;;2.00;1.90;;;;;;;;;;5106246;28;20027;-63
2024/02/24 04:35:54;;;;;;;4.57;2.67;;;;;;;;;;5085016;28;20089;-64
2024/02/24 04:38:29;;;;;;;2.67;2.47;;;;;;;;;;5087564;28;20049;-64
2024/02/24 04:40:55;;;;;;;2.53;1.88;;;;;;;;;;5081978;28;20440;-63
2024/02/24 04:43:21;;;;;;;4.50;3.60;;;;;;;;;;5082654;28;20118;-66
2024/02/24 04:45:48;;;;;;;3.00;2.25;;;;;;;;;;5089380;28;20078;-63
2024/02/24 04:48:14;;;;;;;2.50;2.30;;;;;;;;;;5087492;28;20035;-64
2024/02/24 04:50:40;;;;;;;4.43;2.80;;;;;;;;;;5085490;28;20016;-64
2024/02/24 04:53:07;;;;;;;4.18;3.53;;;;;;;;;;5089321;28;20028;-65
2024/02/24 04:55:33;;;;;;;5.10;3.20;;;;;;;;;;5082310;28;20043;-64
2024/02/24 04:57:59;;;;;;;3.40;2.70;;;;;;;;;;5084843;28;20039;-63
2024/02/24 05:00:25;;;;;;;3.97;3.05;;;;;;;;;;5082805;28;20019;-64
2024/02/24 05:02:52;;;;;;;3.63;3.15;;;;;;;;;;5090808;28;20028;-64
2024/02/24 05:05:18;;;;;;;5.40;4.45;;;;;;;;;;5083232;28;20059;-64
2024/02/24 05:07:48;;;;;;;9.82;4.53;;;;;;;;;;5087078;28;20027;-64
2024/02/24 05:10:15;;;;;;;4.82;4.32;;;;;;;;;;5084594;28;20021;-66
2024/02/24 05:12:47;;;;;;;4.60;3.67;;;;;;;;;;5076401;28;20060;-64
2024/02/24 05:15:16;;;;;;;3.60;2.95;;;;;;;;;;5082698;28;20040;-64
2024/02/24 05:17:42;;;;;;;4.45;3.67;;;;;;;;;;5079216;28;20032;-64
2024/02/24 05:20:10;;;;;;;4.63;3.13;;;;;;;;;;5084561;28;20031;-64
2024/02/24 05:22:37;;;;;;;3.22;2.95;;;;;;;;;;5078065;28;20020;-65
2024/02/24 05:25:03;;;;;;;6.38;3.03;;;;;;;;;;5080373;28;20111;-64
2024/02/24 05:27:30;;;;;;;3.90;3.30;;;;;;;;;;5078295;28;20047;-63
2024/02/24 05:29:56;;;;;;;4.68;3.22;;;;;;;;;;5082117;28;20036;-63
2024/02/24 05:32:23;;;;;;;4.30;2.70;;;;;;;;;;5084516;28;20020;-64
2024/02/24 05:34:49;;;;;;;3.15;2.85;;;;;;;;;;5082235;28;20020;-64
2024/02/24 05:37:15;;;;;;;3.58;2.92;;;;;;;;;;5097403;28;20510;-64
2024/02/24 05:39:41;;;;;;;3.67;3.22;;;;;;;;;;5107973;28;20114;-64
2024/02/24 05:42:08;;;;;;;3.15;2.85;;;;;;;;;;5104848;28;20020;-65
2024/02/24 05:44:34;;;;;;;2.70;2.30;;;;;;;;;;5103180;28;20395;-63
2024/02/24 05:47:00;;;;;;;2.28;2.08;;;;;;;;;;5100639;28;20028;-64
2024/02/24 05:49:26;;;;;;;2.78;2.45;;;;;;;;;;5103315;28;20028;-64
2024/02/24 05:51:53;;;;;;;7.55;2.60;;;;;;;;;;5103697;28;20059;-64
2024/02/24 05:54:19;;;;;;;2.15;1.92;;;;;;;;;;5102113;28;20043;-64
2024/02/24 05:56:46;;;;;;;2.95;2.20;;;;;;;;;;5105165;28;20024;-63
2024/02/24 05:59:12;;;;;;;1.92;1.77;;;;;;;;;;5082837;28;20043;-64
2024/02/24 06:01:38;;;;;;;6.03;2.67;;;;;;;;;;5101769;28;20110;-64
2024/02/24 06:04:04;;;;;;;2.13;1.98;;;;;;;;;;5099016;27;20039;-64
2024/02/24 06:06:30;;;;;;;4.03;2.35;;;;;;;;;;5099901;28;20089;-66
2024/02/24 06:08:57;;;;;;;2.20;2.00;;;;;;;;;;5099646;27;20024;-65
2024/02/24 06:11:23;;;;;;;2.00;1.90;;;;;;;;;;5098763;28;20384;-66
2024/02/24 06:13:52;;;;;;;3.97;2.28;;;;;;;;;;5101361;28;20067;-64
2024/02/24 06:16:18;;;;;;;6.38;2.67;;;;;;;;;;5099316;28;20027;-67
2024/02/24 06:18:45;;;;;;;2.45;2.22;;;;;;;;;;5099716;28;20028;-64
2024/02/24 06:21:11;;;;;;;4.03;2.92;;;;;;;;;;5100888;28;20484;-63
2024/02/24 06:23:37;;;;;;;2.90;2.33;;;;;;;;;;5076153;28;20111;-64
2024/02/24 06:26:03;;;;;;;2.53;2.33;;;;;;;;;;5090193;28;20476;-64
2024/02/24 06:28:30;;;;;;;3.30;2.58;;;;;;;;;;5092925;28;20058;-64
2024/02/24 06:30:57;;;;;;;2.55;2.35;;;;;;;;;;5099717;28;20035;-63
2024/02/24 06:33:23;;;;;;;2.25;2.03;;;;;;;;;;5108081;28;20032;-66
2024/02/24 06:35:50;;;;;;;2.33;2.15;;;;;;;;;;5100363;28;20093;-64
2024/02/24 06:38:16;;;;;;;2.40;2.20;;;;;;;;;;5093546;28;20020;-64
2024/02/24 06:40:43;;;;;;;4.03;2.55;;;;;;;;;;5082617;28;20563;-64
2024/02/24 06:43:09;;;;;;;2.33;2.13;;;;;;;;;;5099826;28;20031;-64
2024/02/24 06:45:35;;;;;;;2.78;2.58;;;;;;;;;;5101996;28;20124;-65
2024/02/24 06:48:01;;;;;;;7.15;2.45;;;;;;;;;;5100870;28;20038;-64
2024/02/24 06:50:27;;;;;;;2.42;2.10;;;;;;;;;;5102085;28;20024;-63
2024/02/24 06:52:54;;;;;;;8.68;3.00;;;;;;;;;;5097160;28;20522;-63
2024/02/24 06:55:20;;;;;;;9.20;2.40;;;;;;;;;;5099829;28;20028;-63
2024/02/24 06:57:48;;;;;;;5.50;3.13;;;;;;;;;;5098695;28;20024;-63
2024/02/24 07:00:14;;;;;;;2.97;2.67;;;;;;;;;;5104224;28;20031;-63
2024/02/24 07:02:41;;;;;;;6.70;4.32;;;;;;;;;;5090183;28;20024;-63
2024/02/24 07:05:08;;;;;;;6.38;5.50;;;;;;;;;;5106505;28;20031;-63
2024/02/24 07:07:35;;;;;;;4.40;3.10;;;;;;;;;;5098522;28;20066;-63
2024/02/24 07:10:04;;;;;;;11.80;3.78;;;;;;;;;;5097467;28;20028;-65
2024/02/24 07:12:31;;;;;;;4.30;3.38;;;;;;;;;;5106083;28;20020;-64
2024/02/24 07:14:57;;;;;;;6.28;3.63;;;;;;;;;;5098510;28;20032;-63
2024/02/24 07:17:26;;;;;;;4.40;3.65;;;;;;;;;;5085593;28;20024;-64
2024/02/24 07:19:52;;;;;;;5.38;3.30;;;;;;;;;;5097395;28;20028;-64
2024/02/24 07:22:18;;;;;;;3.80;3.35;;;;;;;;;;5081981;28;20027;-64
2024/02/24 07:24:44;;;;;;;3.40;3.15;;;;;;;;;;5098616;28;20567;-64
2024/02/24 07:27:11;;;;;;;4.38;3.25;;;;;;;;;;5083955;28;20032;-64
2024/02/24 07:29:37;;;;;;;5.35;2.85;;;;;;;;;;5103983;28;20408;-64
2024/02/24 07:32:03;;;;;;;3.42;3.15;;;;;;;;;;5098584;28;20548;-64
2024/02/24 07:34:29;;;;;;;3.28;2.78;;;;;;;;;;5101539;28;20027;-64
2024/02/24 07:36:55;;;;;;;4.50;2.70;;;;;;;;;;5100410;27;20479;-65
2024/02/24 07:39:22;;;;;;;2.88;2.40;;;;;;;;;;5100419;28;20032;-65
2024/02/24 07:41:48;;;;;;;2.85;2.42;;;;;;;;;;5102226;28;20557;-64
2024/02/24 07:44:14;;;;;;;9.52;2.95;;;;;;;;;;5100665;27;20111;-64
2024/02/24 07:46:40;;;;;;;3.05;2.75;;;;;;;;;;5102724;28;20437;-64
2024/02/24 07:49:07;;;;;;;4.65;3.17;;;;;;;;;;5102959;27;20369;-64
2024/02/24 07:51:33;;;;;;;3.10;2.80;;;;;;;;;;5086088;28;20020;-64
2024/02/24 07:53:59;;;;;;;5.05;2.63;;;;;;;;;;5091613;28;20032;-64
2024/02/24 07:56:27;;;;;;;5.03;3.00;;;;;;;;;;5091574;28;20031;-64
2024/02/24 07:58:53;;;;;;;4.63;2.78;;;;;;;;;;5100961;28;20036;-64
2024/02/24 08:01:20;;;;;;;8.27;2.80;;;;;;;;;;5110631;28;20063;-64
2024/02/24 08:03:46;;;;;;;3.13;2.78;;;;;;;;;;5109986;28;20060;-65
2024/02/24 08:06:12;;;;;;;5.53;2.70;;;;;;;;;;5098113;28;20046;-63
2024/02/24 08:08:38;;;;;;;4.10;2.80;;;;;;;;;;5105036;28;20610;-64
2024/02/24 08:11:05;;;;;;;6.05;2.60;;;;;;;;;;5101247;28;20515;-64
2024/02/24 08:13:31;;;;;;;5.07;3.17;;;;;;;;;;5103554;28;20020;-64
2024/02/24 08:16:03;;;;;;;3.33;2.47;;;;;;;;;;5082394;28;20032;-64
2024/02/24 08:18:30;;;;;;;3.38;3.08;;;;;;;;;;5082234;27;20460;-64
2024/02/24 08:20:56;;;;;;;3.17;2.50;;;;;;;;;;5085513;28;20035;-64
2024/02/24 08:23:22;;;;;;;10.13;2.90;;;;;;;;;;5098125;28;20023;-64
2024/02/24 08:25:48;;;;;;;4.60;2.88;;;;;;;;;;5103273;28;20480;-64
2024/02/24 08:28:16;;;;;;;2.47;2.25;;;;;;;;;;5100032;27;20015;-64
2024/02/24 08:30:43;;;;;;;4.97;2.22;;;;;;;;;;5079861;28;20028;-64
2024/02/24 08:33:09;;;;;;;4.82;2.78;;;;;;;;;;5102647;28;20020;-64
2024/02/24 08:35:35;;;;;;;7.35;4.03;;;;;;;;;;5085683;28;20040;-64
2024/02/24 08:38:02;;;;;;;3.72;3.03;;;;;;;;;;5102360;28;20039;-64
2024/02/24 08:40:28;;;;;;;2.17;2.08;;;;;;;;;;5099912;27;20030;-64
2024/02/24 08:42:54;;;;;;;3.35;2.67;;;;;;;;;;5091099;28;20055;-64
2024/02/24 08:45:21;;;;;;;5.35;3.45;;;;;;;;;;5085628;28;20509;-64
2024/02/24 08:47:47;;;;;;;5.20;3.22;;;;;;;;;;5102876;28;20028;-64
2024/02/24 08:50:14;;;;;;;4.30;3.13;;;;;;;;;;5097587;28;20035;-65
2024/02/24 08:52:40;;;;;;;6.20;3.80;;;;;;;;;;5105834;28;20301;-65
2024/02/24 08:55:07;;;;;;;5.10;3.78;;;;;;;;;;5078130;28;20020;-65
2024/02/24 08:57:33;;;;;;;6.78;4.63;;;;;;;;;;5084723;28;20354;-64
2024/02/24 08:59:59;;;;;;;6.88;4.18;;;;;;;;;;5102372;28;20039;-64
2024/02/24 09:02:25;;;;;;;7.43;4.72;;;;;;;;;;5104330;28;20032;-64
2024/02/24 09:04:52;;;;;;;4.68;4.18;;;;;;;;;;5105988;28;20028;-64
2024/02/24 09:07:20;;;;;;;7.13;4.43;;;;;;;;;;5093776;28;20173;-63
2024/02/24 09:09:47;;;;;;;9.70;5.53;;;;;;;;;;5104851;28;20384;-64
2024/02/24 09:12:14;;;;;;;9.32;5.70;;;;;;;;;;5095190;28;20032;-64
2024/02/24 09:14:40;;;;;;;10.73;5.78;;;;;;;;;;5097299;28;20023;-63
2024/02/24 09:17:07;;;;;;;10.55;6.65;;;;;;;;;;5113619;28;20209;-64
2024/02/24 09:19:38;;;;;;;11.82;6.07;;;;;;;;;;5101142;28;20052;-64
2024/02/24 09:22:05;;;;;;;13.57;6.50;;;;;;;;;;5113209;27;20388;-65
2024/02/24 09:24:31;;;;;;;12.77;6.53;;;;;;;;;;5105026;28;20032;-64
2024/02/24 09:26:57;;;;;;;13.55;6.95;;;;;;;;;;5095605;28;20516;-69
2024/02/24 09:29:23;;;;;;;8.30;4.57;;;;;;;;;;5113167;28;20073;-64
2024/02/24 09:31:49;;;;;;;12.18;4.93;;;;;;;;;;5111772;28;20027;-65
2024/02/24 09:34:18;;;;;;;10.18;6.47;;;;;;;;;;5110776;28;20106;-64
2024/02/24 09:36:44;;;;;;;9.05;4.60;;;;;;;;;;5092604;28;20315;-67
2024/02/24 09:39:12;;;;;;;11.15;5.88;;;;;;;;;;5092650;28;20081;-65
2024/02/24 09:41:38;;;;;;;10.77;5.32;;;;;;;;;;5102562;28;20542;-64
2024/02/24 09:44:05;;;;;;;10.05;4.95;;;;;;;;;;5102807;28;20547;-64
2024/02/24 09:46:33;;;;;;;8.05;3.63;;;;;;;;;;5101404;28;20370;-64
2024/02/24 09:48:59;;;;;;;9.93;5.22;;;;;;;;;;5106209;28;20023;-64
2024/02/24 09:51:27;;;;;;;7.93;5.00;;;;;;;;;;5104578;28;20129;-64
2024/02/24 09:53:54;;;;;;;8.85;4.95;;;;;;;;;;5081470;28;20392;-64
2024/02/24 09:56:23;;;;;;;5.90;3.22;;;;;;;;;;5073829;28;20038;-64
2024/02/24 09:58:53;;;;;;;12.95;4.22;;;;;;;;;;5090736;28;20031;-64
2024/02/24 10:01:23;;;;;;;8.52;4.63;;;;;;;;;;5075463;28;20154;-65
2024/02/24 10:03:50;;;;;;;8.55;4.43;;;;;;;;;;5103684;28;20457;-64
2024/02/24 10:06:16;;;;;;;10.35;4.15;;;;;;;;;;5109823;28;20019;-64
2024/02/24 10:08:47;;;;;;;6.25;4.38;;;;;;;;;;5107492;28;20460;-64
2024/02/24 10:11:13;;;;;;;4.70;3.20;;;;;;;;;;5106708;28;20164;-63
2024/02/24 10:13:40;;;;;;;3.38;2.63;;;;;;;;;;5096240;28;20020;-64
2024/02/24 10:16:07;;;;;;;7.18;3.65;;;;;;;;;;5096383;28;20024;-64
2024/02/24 10:18:34;;;;;;;3.63;3.25;;;;;;;;;;5103656;28;20023;-64
2024/02/24 10:21:00;;;;;;;4.80;2.95;;;;;;;;;;5103427;28;20487;-64
2024/02/24 10:23:26;;;;;;;3.88;2.70;;;;;;;;;;5094387;28;20028;-64
2024/02/24 10:25:57;;;;;;;8.38;3.47;;;;;;;;;;5106247;28;20621;-64
2024/02/24 10:28:25;;;;;;;3.17;2.45;;;;;;;;;;5098189;28;20457;-64
2024/02/24 10:30:51;;;;;;;3.80;3.15;;;;;;;;;;5063513;28;20469;-64
2024/02/24 10:33:18;;;;;;;3.95;2.60;;;;;;;;;;5095685;28;20094;-65
2024/02/24 10:35:44;;;;;;;5.78;2.58;;;;;;;;;;5067128;28;20562;-64
2024/02/24 10:38:13;;;;;;;2.53;2.28;;;;;;;;;;5083450;28;20106;-64
2024/02/24 10:40:41;;;;;;;3.60;3.30;;;;;;;;;;5075449;28;20099;-64
2024/02/24 10:43:08;;;;;;;3.70;3.15;;;;;;;;;;5080663;28;20042;-64
2024/02/24 10:45:34;;;;;;;6.20;3.47;;;;;;;;;;5088845;28;20085;-64
2024/02/24 10:48:01;;;;;;;2.85;2.60;;;;;;;;;;5085940;28;20083;-64
2024/02/24 10:50:27;;;;;;;2.63;2.40;;;;;;;;;;5082790;28;20017;-64
2024/02/24 10:52:55;;;;;;;6.18;3.67;;;;;;;;;;5077031;28;20020;-65
2024/02/24 10:55:23;;;;;;;6.20;2.35;;;;;;;;;;5085784;28;20081;-64
2024/02/24 10:57:52;;;;;;;6.60;2.38;;;;;;;;;;5080551;28;20066;-64
2024/02/24 11:00:24;;;;;;;2.47;2.28;;;;;;;;;;5070120;28;20447;-65
2024/02/24 11:02:51;;;;;;;5.25;2.58;;;;;;;;;;5075121;28;20367;-66
2024/02/24 11:05:17;;;;;;;3.92;2.95;;;;;;;;;;5081714;28;20522;-66
2024/02/24 11:07:44;;;;;;;4.38;2.42;;;;;;;;;;5070650;28;20023;-69
2024/02/24 11:10:18;;;;;;;5.32;3.22;;;;;;;;;;5085654;28;20463;-64
2024/02/24 11:12:45;;;;;;;3.85;3.20;;;;;;;;;;5082368;28;20178;-63
2024/02/24 11:15:18;;;;;;;8.10;3.83;;;;;;;;;;5073913;28;20028;-64
2024/02/24 11:17:48;;;;;;;6.07;3.47;;;;;;;;;;5086463;28;20016;-64
2024/02/24 11:20:33;;;;;;;3.33;3.00;;;;;;;;;;5084747;28;20024;-64
2024/02/24 11:23:20;;;;;;;6.95;2.70;;;;;;;;;;5073277;28;20103;-66
2024/02/24 11:25:46;;;;;;;8.45;3.25;;;;;;;;;;5084409;28;20044;-67
2024/02/24 11:28:19;;;;;;;3.63;3.08;;;;;;;;;;5089435;28;20074;-64
2024/02/24 11:30:45;;;;;;;5.05;2.83;;;;;;;;;;5080970;28;20070;-65
2024/02/24 11:33:25;;;;;;;5.38;3.00;;;;;;;;;;5077827;28;20032;-64
2024/02/24 11:35:54;;;;;;;2.35;2.15;;;;;;;;;;5093992;28;20101;-64
2024/02/24 11:38:22;;;;;;;4.35;3.20;;;;;;;;;;5110246;27;20075;-64
2024/02/24 11:40:49;;;;;;;3.65;2.80;;;;;;;;;;5094599;28;20031;-64
2024/02/24 11:43:16;;;;;;;3.67;2.92;;;;;;;;;;5100143;28;20023;-64
2024/02/24 11:45:46;;;;;;;3.70;3.08;;;;;;;;;;5104226;28;20510;-64
2024/02/24 11:48:12;;;;;;;4.57;3.30;;;;;;;;;;5102619;28;20035;-63
2024/02/24 11:50:38;;;;;;;4.95;2.85;;;;;;;;;;5108588;28;20023;-64
2024/02/24 11:53:05;;;;;;;4.15;2.67;;;;;;;;;;5103183;28;20031;-64
2024/02/24 11:55:31;;;;;;;5.30;2.88;;;;;;;;;;5090936;28;20031;-64
2024/02/24 11:57:57;;;;;;;2.30;2.10;;;;;;;;;;5093518;28;20039;-64
2024/02/24 12:00:23;;;;;;;4.68;2.90;;;;;;;;;;5083205;28;20020;-65
2024/02/24 12:02:49;;;;;;;5.68;2.60;;;;;;;;;;5100991;28;20111;-64
2024/02/24 12:05:16;;;;;;;3.47;2.97;;;;;;;;;;5075676;28;20093;-66
2024/02/24 12:07:43;;;;;;;3.53;2.65;;;;;;;;;;5098297;28;20043;-64
2024/02/24 12:10:09;;;;;;;3.40;2.20;;;;;;;;;;5104693;28;20031;-64
2024/02/24 12:12:36;;;;;;;9.05;2.67;;;;;;;;;;5099716;28;20023;-64
2024/02/24 12:15:02;;;;;;;6.63;2.80;;;;;;;;;;5088164;28;20767;-64
2024/02/24 12:17:28;;;;;;;8.82;2.72;;;;;;;;;;5092198;28;20027;-64
2024/02/24 12:19:56;;;;;;;6.15;2.38;;;;;;;;;;5104256;28;20038;-64
2024/02/24 12:22:23;;;;;;;4.28;3.08;;;;;;;;;;5101789;28;20108;-64
2024/02/24 12:24:49;;;;;;;5.25;3.05;;;;;;;;;;5106036;28;20026;-64
2024/02/24 12:27:16;;;;;;;5.18;2.92;;;;;;;;;;5093386;28;20032;-66
2024/02/24 12:29:42;;;;;;;5.03;3.10;;;;;;;;;;5112122;27;20446;-64
2024/02/24 12:32:08;;;;;;;3.42;3.13;;;;;;;;;;5099315;28;20046;-67
2024/02/24 12:34:35;;;;;;;3.78;2.97;;;;;;;;;;5110058;28;20023;-65
2024/02/24 12:37:03;;;;;;;12.20;2.88;;;;;;;;;;5105278;28;20120;-65
2024/02/24 12:39:34;;;;;;;3.03;2.42;;;;;;;;;;5108678;28;20416;-65
2024/02/24 12:42:01;;;;;;;5.88;2.90;;;;;;;;;;5091805;28;20031;-64
2024/02/24 12:44:27;;;;;;;2.85;2.53;;;;;;;;;;5101616;27;20023;-64
2024/02/24 12:46:53;;;;;;;5.22;2.95;;;;;;;;;;5097554;28;20032;-64
2024/02/24 12:49:19;;;;;;;2.92;2.25;;;;;;;;;;5085674;28;20028;-65
2024/02/24 12:51:52;;;;;;;3.35;2.50;;;;;;;;;;5107425;27;20032;-65
2024/02/24 12:54:18;;;;;;;4.18;3.15;;;;;;;;;;5100546;28;20027;-64
2024/02/24 12:56:45;;;;;;;5.93;3.70;;;;;;;;;;5100993;28;20036;-64
2024/02/24 12:59:12;;;;;;;7.50;3.60;;;;;;;;;;5099127;28;20028;-65
2024/02/24 13:01:38;;;;;;;5.50;3.30;;;;;;;;;;5108098;27;20036;-65
2024/02/24 13:04:05;;;;;;;5.40;3.47;;;;;;;;;;5106046;28;20028;-67
2024/02/24 13:06:31;;;;;;;3.63;2.80;;;;;;;;;;5105607;28;20028;-65
2024/02/24 13:08:57;;;;;;;6.13;3.40;;;;;;;;;;5106216;28;20023;-67
2024/02/24 13:11:23;;;;;;;6.35;3.63;;;;;;;;;;5088234;28;20047;-64
2024/02/24 13:14:00;;;;;;;6.68;3.72;;;;;;;;;;5091611;28;20031;-65
2024/02/24 13:16:26;;;;;;;4.13;3.00;;;;;;;;;;5089985;28;20472;-64
2024/02/24 13:18:53;;;;;;;6.43;3.20;;;;;;;;;;5110951;27;20028;-65
2024/02/24 13:21:20;;;;;;;5.13;2.85;;;;;;;;;;5107743;28;20394;-64
2024/02/24 13:23:46;;;;;;;8.05;6.35;;;;;;;;;;5091051;28;20061;-64
2024/02/24 13:26:13;;;;;;;43.22;15.60;;;;;;;;;;5113891;28;20031;-65
2024/02/24 13:28:39;;;;;;;13.30;6.75;;;;;;;;;;5101299;28;20043;-64
2024/02/24 13:31:05;;;;;;;13.15;5.65;;;;;;;;;;5097500;28;20016;-64
2024/02/24 13:33:32;;;;;;;15.90;7.40;;;;;;;;;;5104752;28;20034;-64
2024/02/24 13:35:58;;;;;;;5.63;4.28;;;;;;;;;;5098450;28;20063;-64
2024/02/24 13:38:24;;;;;;;5.75;4.05;;;;;;;;;;5102498;28;20051;-65
2024/02/24 13:40:55;;;;;;;10.27;5.50;;;;;;;;;;5095137;28;20037;-64
2024/02/24 13:43:21;;;;;;;7.32;3.90;;;;;;;;;;5081813;28;20024;-64
2024/02/24 13:45:48;;;;;;;4.95;3.92;;;;;;;;;;5108632;28;20035;-68
2024/02/24 13:48:14;;;;;;;12.57;7.05;;;;;;;;;;5099218;28;20030;-64
2024/02/24 13:50:41;;;;;;;3.65;2.90;;;;;;;;;;5104068;28;20019;-65
2024/02/24 13:53:07;;;;;;;37.70;14.80;;;;;;;;;;5107053;28;20465;-65
2024/02/24 13:55:33;;;;;;;14.45;8.23;;;;;;;;;;5110639;28;20020;-65
2024/02/24 13:58:02;;;;;;;9.15;3.63;;;;;;;;;;5098833;28;20032;-65
2024/02/24 14:00:29;;;;;;;5.88;3.53;;;;;;;;;;5094528;28;20036;-64
2024/02/24 14:02:55;;;;;;;5.35;3.63;;;;;;;;;;5097450;28;20233;-64
2024/02/24 14:05:21;;;;;;;6.78;4.35;;;;;;;;;;5093243;28;20031;-64
2024/02/24 14:07:47;;;;;;;9.50;4.90;;;;;;;;;;5113309;27;20036;-64
2024/02/24 14:10:14;;;;;;;4.07;2.85;;;;;;;;;;5087001;28;20027;-64
2024/02/24 14:12:40;;;;;;;3.13;2.38;;;;;;;;;;5099779;28;20023;-64
2024/02/24 14:15:07;;;;;;;3.05;2.35;;;;;;;;;;5109435;28;20062;-64
2024/02/24 14:17:33;;;;;;;3.45;2.58;;;;;;;;;;5101198;28;20043;-64
2024/02/24 14:19:59;;;;;;;4.28;3.22;;;;;;;;;;5100873;28;20035;-64
2024/02/24 14:22:28;;;;;;;4.43;3.00;;;;;;;;;;5099739;28;20027;-66
2024/02/24 14:24:55;;;;;;;12.75;5.55;;;;;;;;;;5097760;28;20020;-65
2024/02/24 14:27:22;;;;;;;3.35;2.55;;;;;;;;;;5084446;28;20035;-65
2024/02/24 14:29:48;;;;;;;11.90;6.93;;;;;;;;;;5096976;28;20039;-64
2024/02/24 14:32:16;;;;;;;12.52;9.98;;;;;;;;;;5099872;28;20404;-64
2024/02/24 14:34:43;;;;;;;20.05;15.18;;;;;;;;;;5100635;28;20054;-64
2024/02/24 14:37:10;;;;;;;15.65;13.80;;;;;;;;;;5094295;28;20050;-64